Time;durP1;ratioP1;P1;durP2;ratioP2;P2;SDS_P1;SDS_P2;PMS_P1;PMS_P2;Temp;Humidity;BMP_temperature;BMP_pressure;BME280_temperature;BME280_humidity;BME280_pressure;Samples;Min_cycle;Max_cycle;Signal;HPM_P1;HPM_P2
2023/04/14 00:01:31;;;;;;;9.30;3.10;;;;;;;;;;5016202;28;20501;-77
2023/04/14 00:03:58;;;;;;;14.30;3.10;;;;;;;;;;5017693;28;20918;-77
2023/04/14 00:06:26;;;;;;;11.80;3.10;;;;;;;;;;4998936;28;20427;-77
2023/04/14 00:08:52;;;;;;;11.18;3.33;;;;;;;;;;5000419;28;20917;-76
2023/04/14 00:11:18;;;;;;;14.95;4.30;;;;;;;;;;5003991;28;20427;-77
2023/04/14 00:13:44;;;;;;;15.73;4.30;;;;;;;;;;5030351;28;20487;-77
2023/04/14 00:16:11;;;;;;;11.90;3.47;;;;;;;;;;4996341;28;20934;-77
2023/04/14 00:18:37;;;;;;;10.93;3.00;;;;;;;;;;5016948;28;20506;-77
2023/04/14 00:21:03;;;;;;;10.68;3.30;;;;;;;;;;4999340;28;20403;-77
2023/04/14 00:23:29;;;;;;;9.75;3.42;;;;;;;;;;5031598;28;20422;-77
2023/04/14 00:25:55;;;;;;;10.68;3.42;;;;;;;;;;5013819;28;20426;-77
2023/04/14 00:28:21;;;;;;;13.70;3.45;;;;;;;;;;4997993;28;20830;-77
2023/04/14 00:30:48;;;;;;;9.18;3.25;;;;;;;;;;4997356;28;20427;-76
2023/04/14 00:33:14;;;;;;;10.50;3.38;;;;;;;;;;5031481;28;20910;-77
2023/04/14 00:35:40;;;;;;;14.07;3.55;;;;;;;;;;4999123;28;20914;-76
2023/04/14 00:38:06;;;;;;;11.65;3.55;;;;;;;;;;5015604;28;20438;-76
2023/04/14 00:40:32;;;;;;;13.40;3.47;;;;;;;;;;5014683;28;20488;-77
2023/04/14 00:42:58;;;;;;;10.45;3.70;;;;;;;;;;5029583;28;20434;-77
2023/04/14 00:45:26;;;;;;;10.35;3.53;;;;;;;;;;5012291;28;20411;-77
2023/04/14 00:47:52;;;;;;;8.57;3.15;;;;;;;;;;4998660;28;20450;-77
2023/04/14 00:50:18;;;;;;;10.32;3.65;;;;;;;;;;5015075;28;20430;-77
2023/04/14 00:52:46;;;;;;;13.15;3.67;;;;;;;;;;4999219;28;20419;-75
2023/04/14 00:55:12;;;;;;;10.68;3.80;;;;;;;;;;5031138;28;20489;-76
2023/04/14 00:57:39;;;;;;;9.35;3.30;;;4.50;99.90;;;;;;4995903;28;20426;-75
2023/04/14 01:00:05;;;;;;;8.52;3.40;;;;;;;;;;5028395;28;20431;-76
2023/04/14 01:02:32;;;;;;;9.63;3.55;;;;;;;;;;5014527;28;20423;-76
2023/04/14 01:04:58;;;;;;;10.30;3.53;;;;;;;;;;5012158;28;20426;-77
2023/04/14 01:07:25;;;;;;;11.18;3.60;;;;;;;;;;5012900;28;20430;-77
2023/04/14 01:09:52;;;;;;;8.50;3.38;;;;;;;;;;5018499;28;20435;-77
2023/04/14 01:12:18;;;;;;;13.50;4.13;;;;;;;;;;5015138;28;20462;-77
2023/04/14 01:14:54;;;;;;;9.45;3.55;;;4.70;99.90;;;;;;4996938;28;20473;-77
2023/04/14 01:17:37;;;;;;;9.95;3.97;;;;;;;;;;5007951;28;20458;-77
2023/04/14 01:20:42;;;;;;;15.38;3.75;;;4.10;99.90;;;;;;5013778;28;20427;-77
2023/04/14 01:23:09;;;;;;;11.35;3.90;;;;;;;;;;4997939;28;20542;-77
2023/04/14 01:25:38;;;;;;;10.27;3.78;;;;;;;;;;5015641;28;20411;-77
2023/04/14 01:28:04;;;;;;;12.20;3.70;;;;;;;;;;4998041;28;20423;-77
2023/04/14 01:30:45;;;;;;;10.52;3.45;;;;;;;;;;5011977;28;20430;-76
2023/04/14 01:33:15;;;;;;;9.68;3.65;;;;;;;;;;5031544;28;20763;-77
2023/04/14 01:35:47;;;;;;;8.15;3.35;;;;;;;;;;4995957;28;20442;-77
2023/04/14 01:38:17;;;;;;;7.53;3.22;;;;;;;;;;5004228;28;20423;-77
2023/04/14 01:40:48;;;;;;;8.15;3.35;;;;;;;;;;5010332;28;20511;-77
2023/04/14 01:43:14;;;;;;;9.45;3.88;;;;;;;;;;5010823;28;20432;-77
2023/04/14 01:45:49;;;;;;;11.05;3.63;;;;;;;;;;4992396;28;20841;-77
2023/04/14 01:48:16;;;;;;;11.75;3.78;;;;;;;;;;4997615;28;20424;-77
2023/04/14 01:50:42;;;;;;;13.57;4.00;;;;;;;;;;5009891;28;20420;-77
2023/04/14 01:53:10;;;;;;;10.17;4.07;;;;;;;;;;4994345;28;20496;-77
2023/04/14 01:55:37;;;;;;;15.27;4.47;;;;;;;;;;5009817;28;20819;-77
2023/04/14 01:58:05;;;;;;;12.95;3.80;;;;;;;;;;5009906;28;20433;-77
2023/04/14 02:00:31;;;;;;;12.32;3.90;;;;;;;;;;4995203;28;20424;-76
2023/04/14 02:02:58;;;;;;;9.38;3.70;;;;;;;;;;5011954;28;20804;-77
2023/04/14 02:05:24;;;;;;;14.40;4.18;;;;;;;;;;5009631;28;20424;-76
2023/04/14 02:07:52;;;;;;;14.20;3.80;;;;;;;;;;4993275;28;20978;-75
2023/04/14 02:10:19;;;;;;;9.32;3.63;;;;;;;;;;5010792;28;20475;-76
2023/04/14 02:12:47;;;;;;;10.05;4.03;;;;;;;;;;4994667;28;20804;-76
2023/04/14 02:15:16;;;;;;;8.70;3.67;;;;;;;;;;4993807;28;20923;-76
2023/04/14 02:17:48;;;;;;;13.05;3.67;;;4.20;99.90;;;;;;4994131;28;20860;-77
2023/04/14 02:20:14;;;;;;;11.40;3.83;;;;;;;;;;5010996;28;20415;-76
2023/04/14 02:22:40;;;;;;;17.23;3.83;;;;;;;;;;5009717;28;20424;-77
2023/04/14 02:25:07;;;;;;;10.60;3.83;;;;;;;;;;5008954;28;20449;-76
2023/04/14 02:27:36;;;;;;;9.25;3.65;;;;;;;;;;5010100;28;20474;-76
2023/04/14 02:30:07;;;;;;;10.43;3.42;;;;;;;;;;5009722;28;20436;-76
2023/04/14 02:32:34;;;;;;;8.93;3.75;;;;;;;;;;5011096;28;20408;-76
2023/04/14 02:35:03;;;;;;;11.80;3.80;;;;;;;;;;5008661;28;20421;-77
2023/04/14 02:37:36;;;;;;;10.02;3.42;;;4.20;99.90;;;;;;5006478;28;20433;-76
2023/04/14 02:40:10;;;;;;;9.63;3.90;;;;;;;;;;5012348;28;20401;-76
2023/04/14 02:42:40;;;;;;;12.20;3.85;;;4.10;99.90;;;;;;5013196;28;20435;-76
2023/04/14 02:45:11;;;;;;;11.70;3.90;;;4.20;99.90;;;;;;4995915;28;20834;-76
2023/04/14 02:47:40;;;;;;;9.30;3.37;;;;;;;;;;5015404;28;20489;-76
2023/04/14 02:50:07;;;;;;;10.20;3.63;;;;;;;;;;5029198;28;20426;-76
2023/04/14 02:52:33;;;;;;;8.53;3.10;;;;;;;;;;4997277;28;20422;-77
2023/04/14 02:55:00;;;;;;;7.10;3.17;;;;;;;;;;5012163;28;20922;-77
2023/04/14 02:57:27;;;;;;;8.65;3.50;;;;;;;;;;5029877;28;20433;-77
2023/04/14 02:59:54;;;;;;;8.35;3.50;;;4.20;99.90;;;;;;5032746;28;20931;-77
2023/04/14 03:02:20;;;;;;;12.13;3.67;;;;;;;;;;5005944;28;20403;-77
2023/04/14 03:04:47;;;;;;;9.68;3.22;;;;;;;;;;5026924;28;20415;-77
2023/04/14 03:07:14;;;;;;;8.57;3.33;;;;;;;;;;5013350;28;20794;-77
2023/04/14 03:09:41;;;;;;;9.23;3.42;;;;;;;;;;5005327;28;20423;-77
2023/04/14 03:12:07;;;;;;;8.82;3.45;;;;;;;;;;5012732;28;20468;-77
2023/04/14 03:14:34;;;;;;;11.55;3.75;;;;;;;;;;5012453;28;20414;-74
2023/04/14 03:17:00;;;;;;;10.87;3.47;;;;;;;;;;5011256;28;20806;-75
2023/04/14 03:19:28;;;;;;;13.45;3.63;;;;;;;;;;5013281;28;20414;-76
2023/04/14 03:21:54;;;;;;;11.13;3.85;;;;;;;;;;5012938;28;20458;-77
2023/04/14 03:24:26;;;;;;;11.07;3.45;;;4.10;99.90;;;;;;5029294;28;20427;-77
2023/04/14 03:26:58;;;;;;;11.38;3.80;;;;;;;;;;5010086;28;20423;-76
2023/04/14 03:29:34;;;;;;;12.63;3.75;;;;;;;;;;5011349;28;20498;-77
2023/04/14 03:32:05;;;;;;;9.02;3.65;;;4.20;99.90;;;;;;5029340;28;20422;-77
2023/04/14 03:34:33;;;;;;;12.60;3.90;;;;;;;;;;4996782;28;20442;-77
2023/04/14 03:36:59;;;;;;;9.10;3.50;;;;;;;;;;5011107;28;20434;-77
2023/04/14 03:39:29;;;;;;;12.15;4.00;;;;;;;;;;5006187;28;20415;-76
2023/04/14 03:41:56;;;;;;;9.75;3.47;;;;;;;;;;5023632;28;20510;-77
2023/04/14 03:44:24;;;;;;;10.50;3.83;;;;;;;;;;5010888;28;20423;-77
2023/04/14 03:46:52;;;;;;;10.45;3.90;;;;;;;;;;4995380;28;21102;-76
2023/04/14 03:49:19;;;;;;;9.40;3.38;;;;;;;;;;4994980;28;20454;-77
2023/04/14 03:51:47;;;;;;;10.15;3.78;;;;;;;;;;5012872;28;20415;-77
2023/04/14 03:54:14;;;;;;;8.73;3.67;;;;;;;;;;4995447;28;20507;-77
2023/04/14 03:56:44;;;;;;;8.75;3.60;;;;;;;;;;4995969;28;20430;-77
2023/04/14 04:07:52;;;;;;;9.80;3.80;;;;;;;;;;5453964;23;20426;-78
2023/04/14 04:13:16;;;;;;;14.27;3.97;;;;;;;;;;4928784;23;20464;-76
2023/04/14 04:15:43;;;;;;;14.50;4.73;;;;;;;;;;5003793;28;20426;-76
2023/04/14 04:18:10;;;;;;;12.23;4.20;;;;;;;;;;4975093;28;20403;-76
2023/04/14 04:20:37;;;;;;;10.38;4.43;;;;;;;;;;4991070;28;20848;-76
2023/04/14 04:23:06;;;;;;;11.98;4.50;;;;;;;;;;4992848;28;20492;-77
2023/04/14 04:25:33;;;;;;;9.05;4.57;;;;;;;;;;4977135;28;20428;-77
2023/04/14 04:28:00;;;;;;;15.00;4.80;;;;;;;;;;4993047;28;20430;-77
2023/04/14 04:30:27;;;;;;;12.83;5.03;;;;;;;;;;4990018;28;20515;-77
2023/04/14 04:32:53;;;;;;;12.57;5.00;;;;;;;;;;4977643;28;20437;-77
2023/04/14 04:35:21;;;;;;;8.90;4.63;;;3.80;99.90;;;;;;4975584;28;20429;-77
2023/04/14 04:37:48;;;;;;;11.32;4.95;;;;;;;;;;4977108;28;20458;-78
2023/04/14 04:40:14;;;;;;;10.00;4.75;;;;;;;;;;4991295;28;20446;-77
2023/04/14 04:42:41;;;;;;;13.35;4.90;;;;;;;;;;4993605;28;20426;-77
2023/04/14 04:45:07;;;;;;;11.93;4.50;;;;;;;;;;4976047;28;20427;-77
2023/04/14 04:47:33;;;;;;;11.55;4.50;;;;;;;;;;4958926;28;20516;-77
2023/04/14 04:49:59;;;;;;;11.15;4.20;;;;;;;;;;4975674;28;20430;-77
2023/04/14 04:52:25;;;;;;;12.35;4.65;;;;;;;;;;4976609;28;20413;-76
2023/04/14 04:54:51;;;;;;;10.75;4.60;;;;;;;;;;4976717;28;20918;-76
2023/04/14 04:57:20;;;;;;;10.18;4.60;;;;;;;;;;4974019;28;20431;-76
2023/04/14 04:59:46;;;;;;;14.43;4.93;;;;;;;;;;4977195;28;20980;-76
2023/04/14 05:02:12;;;;;;;8.57;4.90;;;;;;;;;;4976586;28;20492;-75
2023/04/14 05:04:39;;;;;;;9.82;4.28;;;;;;;;;;4976227;28;20434;-76
2023/04/14 05:07:05;;;;;;;10.88;4.70;;;;;;;;;;4960446;28;20995;-76
2023/04/14 05:09:31;;;;;;;9.97;4.90;;;;;;;;;;4974710;28;20469;-76
2023/04/14 05:11:57;;;;;;;11.38;4.85;;;;;;;;;;4981688;28;20438;-76
2023/04/14 05:14:24;;;;;;;9.88;4.93;;;;;;;;;;4993432;28;20844;-75
2023/04/14 05:16:50;;;;;;;11.80;4.88;;;;;;;;;;4976606;28;20976;-75
2023/04/14 05:19:16;;;;;;;13.40;4.90;;;;;;;;;;4991418;28;21909;-76
2023/04/14 05:21:42;;;;;;;10.80;4.50;;;;;;;;;;4977232;28;20429;-75
2023/04/14 05:24:08;;;;;;;15.73;5.20;;;;;;;;;;4974015;28;20505;-76
2023/04/14 05:26:35;;;;;;;11.75;6.50;;;;;;;;;;4977231;28;20426;-75
2023/04/14 05:29:01;;;;;;;10.13;5.23;;;;;;;;;;4992865;28;21173;-75
2023/04/14 05:31:27;;;;;;;14.15;5.18;;;;;;;;;;4978863;28;20796;-76
2023/04/14 05:33:53;;;;;;;11.98;5.55;;;;;;;;;;4982317;28;20765;-76
2023/04/14 05:36:19;;;;;;;13.82;5.20;;;;;;;;;;4974861;28;20438;-76
2023/04/14 05:38:45;;;;;;;12.98;5.68;;;;;;;;;;4991217;28;20425;-76
2023/04/14 05:41:11;;;;;;;11.93;5.43;;;;;;;;;;5002881;28;20434;-76
2023/04/14 05:43:37;;;;;;;10.52;6.22;;;;;;;;;;4976556;28;20510;-76
2023/04/14 05:46:03;;;;;;;10.95;6.57;;;;;;;;;;5002594;28;20448;-76
2023/04/14 05:48:31;;;;;;;10.82;4.82;;;;;;;;;;4994905;28;20439;-76
2023/04/14 05:50:58;;;;;;;11.90;5.90;;;;;;;;;;4993337;28;20424;-76
2023/04/14 05:53:24;;;;;;;12.95;4.60;;;;;;;;;;5002468;28;20458;-76
2023/04/14 05:55:51;;;;;;;11.65;4.97;;;;;;;;;;4978233;28;20473;-76
2023/04/14 05:58:17;;;;;;;13.10;4.80;;;;;;;;;;4995294;28;20452;-76
2023/04/14 06:00:43;;;;;;;10.88;4.40;;;;;;;;;;4978933;28;20420;-76
2023/04/14 06:03:09;;;;;;;10.68;4.60;;;;;;;;;;4997471;28;20492;-77
2023/04/14 06:05:35;;;;;;;10.77;4.50;;;;;;;;;;4978518;28;20979;-77
2023/04/14 06:08:01;;;;;;;9.88;4.20;;;;;;;;;;4977055;28;20824;-76
2023/04/14 06:10:27;;;;;;;10.77;4.70;;;;;;;;;;4995983;28;20455;-76
2023/04/14 06:12:53;;;;;;;10.63;5.15;;;;;;;;;;5002217;28;20834;-77
2023/04/14 06:15:19;;;;;;;10.40;5.93;;;;;;;;;;4987836;28;20782;-76
2023/04/14 06:17:46;;;;;;;8.68;5.28;;;;;;;;;;4991015;28;20434;-77
2023/04/14 06:20:13;;;;;;;11.65;5.05;;;;;;;;;;4994483;28;20540;-77
2023/04/14 06:22:39;;;;;;;11.60;4.97;;;;;;;;;;4983942;28;20940;-77
2023/04/14 06:25:06;;;;;;;12.18;5.32;;;;;;;;;;5013554;28;20832;-78
2023/04/14 06:27:32;;;;;;;11.37;4.60;;;;;;;;;;4971776;28;20416;-78
2023/04/14 06:30:01;;;;;;;11.32;5.82;;;;;;;;;;4981342;28;20426;-77
2023/04/14 06:32:27;;;;;;;10.88;4.53;;;;;;;;;;4975902;28;20454;-77
2023/04/14 06:34:53;;;;;;;12.17;4.10;;;;;;;;;;4982732;28;20460;-76
2023/04/14 06:37:19;;;;;;;8.73;4.43;;;;;;;;;;4993961;28;20425;-76
2023/04/14 06:39:45;;;;;;;8.82;4.28;;;;;;;;;;4988963;28;20476;-76
2023/04/14 06:42:12;;;;;;;10.13;4.18;;;;;;;;;;5005921;28;20422;-77
2023/04/14 06:44:39;;;;;;;11.20;4.57;;;;;;;;;;4994807;28;20432;-77
2023/04/14 06:47:05;;;;;;;10.65;4.20;;;;;;;;;;4974841;28;20501;-77
2023/04/14 06:49:31;;;;;;;8.40;4.00;;;;;;;;;;4962535;28;20489;-77
2023/04/14 06:51:57;;;;;;;10.75;4.07;;;;;;;;;;5005158;28;21146;-77
2023/04/14 06:54:23;;;;;;;7.72;3.92;;;;;;;;;;4999513;28;20424;-77
2023/04/14 06:56:49;;;;;;;10.48;3.78;;;;;;;;;;4985698;28;20947;-77
2023/04/14 06:59:15;;;;;;;11.18;4.18;;;;;;;;;;4990110;28;20424;-78
2023/04/14 07:01:42;;;;;;;11.35;3.80;;;;;;;;;;5005167;28;20418;-77
2023/04/14 07:04:08;;;;;;;9.82;3.92;;;;;;;;;;4984897;28;20426;-77
2023/04/14 07:06:34;;;;;;;8.25;3.60;;;;;;;;;;4999606;28;20430;-77
2023/04/14 07:09:00;;;;;;;8.55;4.13;;;;;;;;;;4990992;28;20416;-77
2023/04/14 07:11:26;;;;;;;8.70;4.35;;;;;;;;;;4996153;28;20527;-75
2023/04/14 07:13:52;;;;;;;11.70;3.90;;;;;;;;;;4990031;28;20492;-76
2023/04/14 07:16:18;;;;;;;9.07;4.07;;;;;;;;;;4988075;28;20908;-76
2023/04/14 07:18:44;;;;;;;11.05;4.32;;;;;;;;;;4973310;28;20651;-76
2023/04/14 07:21:10;;;;;;;10.20;4.07;;;;;;;;;;4992551;28;20422;-76
2023/04/14 07:23:36;;;;;;;9.35;4.22;;;;;;;;;;4975528;28;20434;-76
2023/04/14 07:26:02;;;;;;;10.93;4.40;;;;;;;;;;4990550;28;20441;-76
2023/04/14 07:28:28;;;;;;;9.50;4.00;;;;;;;;;;4971864;28;20430;-76
2023/04/14 07:30:55;;;;;;;7.72;3.78;;;;;;;;;;4981392;28;20433;-76
2023/04/14 07:33:21;;;;;;;10.02;3.92;;;;;;;;;;4989786;28;20430;-76
2023/04/14 07:35:48;;;;;;;9.40;4.05;;;;;;;;;;4994550;28;20509;-76
2023/04/14 07:38:14;;;;;;;6.95;3.80;;;;;;;;;;4984720;28;20429;-76
2023/04/14 07:40:40;;;;;;;8.05;3.60;;;;;;;;;;4984968;28;20435;-77
2023/04/14 07:43:07;;;;;;;8.80;4.18;;;;;;;;;;4986636;28;20497;-77
2023/04/14 07:45:33;;;;;;;6.82;3.55;;;;;;;;;;4988229;28;20430;-77
2023/04/14 07:47:59;;;;;;;10.18;4.13;;;;;;;;;;4999621;28;20514;-77
2023/04/14 07:50:25;;;;;;;10.00;4.00;;;;;;;;;;4981564;28;20425;-77
2023/04/14 07:52:51;;;;;;;9.50;3.90;;;;;;;;;;4995580;28;20878;-77
2023/04/14 07:55:17;;;;;;;8.48;3.72;;;;;;;;;;5002946;28;20421;-77
2023/04/14 07:57:44;;;;;;;8.43;3.63;;;;;;;;;;4960090;28;20759;-77
2023/04/14 08:00:10;;;;;;;8.57;3.75;;;;;;;;;;4995698;28;20431;-77
2023/04/14 08:02:37;;;;;;;8.52;4.10;;;;;;;;;;4983423;28;20434;-77
2023/04/14 08:05:03;;;;;;;9.47;3.67;;;10.60;99.90;;;;;;4991229;28;20426;-77
2023/04/14 08:07:29;;;;;;;9.10;3.55;;;;;;;;;;4973974;28;20824;-76
2023/04/14 08:09:55;;;;;;;9.38;3.50;;;;;;;;;;4984275;28;20412;-76
2023/04/14 08:12:23;;;;;;;10.25;3.35;;;;;;;;;;4995901;28;20438;-76
2023/04/14 08:14:49;;;;;;;8.53;3.30;;;;;;;;;;4992277;28;20430;-77
2023/04/14 08:17:15;;;;;;;10.60;3.55;;;;;;;;;;4976494;28;20431;-77
2023/04/14 08:19:41;;;;;;;10.00;3.70;;;;;;;;;;4981597;28;20919;-77
2023/04/14 08:22:07;;;;;;;7.45;3.33;;;;;;;;;;4992217;28;20474;-76
2023/04/14 08:24:33;;;;;;;9.95;2.95;;;;;;;;;;4992366;28;20407;-77
2023/04/14 08:27:01;;;;;;;8.20;3.10;;;;;;;;;;4989350;28;20434;-75
2023/04/14 08:29:27;;;;;;;8.70;2.97;;;;;;;;;;4971752;28;20426;-76
2023/04/14 08:31:53;;;;;;;7.63;3.00;;;;;;;;;;4990999;28;20441;-77
2023/04/14 08:34:19;;;;;;;9.98;2.97;;;;;;;;;;4975685;28;20422;-77
2023/04/14 08:36:46;;;;;;;9.38;2.90;;;;;;;;;;4990863;28;20427;-78
2023/04/14 08:39:12;;;;;;;6.97;2.50;;;;;;;;;;4992342;28;20418;-78
2023/04/14 08:41:38;;;;;;;9.50;2.63;;;;;;;;;;4998767;28;20929;-79
2023/04/14 08:44:05;;;;;;;8.80;2.60;;;;;;;;;;4977098;28;20424;-78
2023/04/14 08:46:31;;;;;;;7.80;2.60;;;;;;;;;;4999589;28;20463;-78
2023/04/14 08:49:19;;;;;;;8.82;2.80;;;;;;;;;;4996226;28;20438;-78
2023/04/14 08:51:46;;;;;;;5.97;2.20;;;12.50;99.90;;;;;;4992839;28;20923;-78
2023/04/14 08:54:12;;;;;;;8.73;2.58;;;;;;;;;;4984359;28;20438;-78
2023/04/14 08:56:40;;;;;;;8.40;2.50;;;;;;;;;;4989340;28;20427;-79
2023/04/14 08:59:07;;;;;;;7.38;2.70;;;;;;;;;;4978443;28;20426;-78
2023/04/14 09:01:34;;;;;;;8.88;2.33;;;;;;;;;;4988759;28;20472;-80
2023/04/14 09:04:02;;;;;;;6.45;2.35;;;;;;;;;;4974596;28;20430;-79
2023/04/14 09:06:28;;;;;;;10.07;3.00;;;;;;;;;;4979404;28;20428;-80
2023/04/14 09:08:54;;;;;;;9.68;2.65;;;;;;;;;;4976361;28;20428;-79
2023/04/14 09:11:21;;;;;;;8.27;2.40;;;;;;;;;;4981712;28;20437;-79
2023/04/14 09:13:48;;;;;;;8.38;2.40;;;13.10;99.90;;;;;;4997456;28;20430;-79
2023/04/14 09:16:16;;;;;;;9.13;2.60;;;12.70;99.90;;;;;;4976096;28;20481;-79
2023/04/14 09:18:43;;;;;;;8.55;2.70;;;;;;;;;;4974901;28;20427;-78
2023/04/14 09:21:10;;;;;;;7.78;2.42;;;13.10;99.90;;;;;;4983942;28;20445;-78
2023/04/14 09:23:40;;;;;;;6.93;2.42;;;12.90;99.90;;;;;;4991356;28;20466;-78
2023/04/14 09:26:08;;;;;;;7.00;2.30;;;;;;;;;;4996622;28;20456;-79
2023/04/14 09:28:34;;;;;;;10.82;3.05;;;;;;;;;;4980091;28;20429;-79
2023/04/14 09:31:01;;;;;;;10.48;2.85;;;;;;;;;;4996835;28;20543;-78
2023/04/14 09:33:27;;;;;;;9.73;2.58;;;;;;;;;;4986320;28;20497;-79
2023/04/14 09:35:54;;;;;;;6.97;2.53;;;;;;;;;;4958554;28;20438;-79
2023/04/14 09:38:35;;;;;;;7.33;2.47;;;13.30;99.90;;;;;;4998534;28;20971;-79
2023/04/14 09:41:02;;;;;;;6.95;2.08;;;;;;;;;;5000005;28;20982;-79
2023/04/14 09:43:29;;;;;;;8.43;2.30;;;;;;;;;;4985288;28;20413;-78
2023/04/14 09:45:56;;;;;;;7.40;2.22;;;;;;;;;;4975537;28;20414;-79
2023/04/14 09:48:23;;;;;;;8.80;2.50;;;;;;;;;;4998080;28;20518;-80
2023/04/14 09:50:58;;;;;;;9.13;2.47;;;;;;;;;;4975361;28;20568;-79
2023/04/14 09:53:26;;;;;;;6.38;2.20;;;;;;;;;;4989265;28;20437;-79
2023/04/14 09:55:52;;;;;;;7.72;2.60;;;;;;;;;;4988570;28;20454;-79
2023/04/14 09:58:21;;;;;;;8.03;2.43;;;;;;;;;;4982664;28;20458;-79
2023/04/14 10:00:50;;;;;;;6.75;2.20;;;14.00;99.90;;;;;;4974972;28;20434;-79
2023/04/14 10:03:16;;;;;;;8.60;2.60;;;;;;;;;;4973201;28;20431;-78
2023/04/14 10:05:48;;;;;;;8.75;2.53;;;;;;;;;;4971792;28;20422;-80
2023/04/14 10:08:14;;;;;;;9.10;2.42;;;;;;;;;;4995038;28;20468;-80
2023/04/14 10:10:41;;;;;;;8.80;2.40;;;;;;;;;;4969914;28;20447;-80
2023/04/14 10:13:07;;;;;;;8.43;2.35;;;;;;;;;;4989136;28;20500;-80
2023/04/14 10:15:33;;;;;;;10.00;2.58;;;;;;;;;;5004670;28;20450;-80
2023/04/14 10:17:59;;;;;;;6.38;2.60;;;;;;;;;;4993786;28;20436;-79
2023/04/14 10:20:25;;;;;;;7.75;2.40;;;;;;;;;;4989845;28;20748;-79
2023/04/14 10:22:53;;;;;;;7.70;2.30;;;;;;;;;;5005806;28;20415;-79
2023/04/14 10:25:19;;;;;;;8.60;2.25;;;;;;;;;;4988642;28;20413;-79
2023/04/14 10:27:45;;;;;;;9.00;2.40;;;;;;;;;;4991097;28;20411;-79
2023/04/14 10:30:11;;;;;;;7.95;2.35;;;;;;;;;;4975778;28;20418;-81
2023/04/14 10:32:39;;;;;;;7.63;2.30;;;;;;;;;;4977336;28;20445;-80
2023/04/14 10:35:06;;;;;;;9.57;2.60;;;;;;;;;;4983626;28;20435;-82
2023/04/14 10:37:33;;;;;;;7.63;2.10;;;;;;;;;;5015673;28;20495;-81
2023/04/14 10:40:01;;;;;;;8.35;2.08;;;15.30;99.90;;;;;;4994371;28;20425;-81
2023/04/14 10:42:31;;;;;;;8.88;2.47;;;;;;;;;;4999583;28;20535;-81
2023/04/14 10:45:03;;;;;;;8.93;2.30;;;;;;;;;;5002875;28;20554;-82
2023/04/14 10:47:29;;;;;;;6.15;1.70;;;;;;;;;;4988733;28;20500;-81
2023/04/14 10:49:57;;;;;;;6.68;1.70;;;;;;;;;;4981270;28;20433;-81
2023/04/14 10:52:24;;;;;;;6.65;2.10;;;;;;;;;;4990363;28;20432;-81
2023/04/14 10:55:02;;;;;;;6.45;2.20;;;;;;;;;;4990177;28;20402;-83
2023/04/14 10:57:29;;;;;;;6.22;1.55;;;;;;;;;;5020632;28;20453;-81
2023/04/14 10:59:56;;;;;;;6.32;1.80;;;;;;;;;;4999005;28;20391;-82
2023/04/14 11:02:26;;;;;;;7.65;1.92;;;;;;;;;;4986980;28;20773;-82
2023/04/14 11:05:04;;;;;;;4.63;1.80;;;15.30;99.90;;;;;;4972629;28;20412;-82
2023/04/14 11:07:31;;;;;;;6.18;1.80;;;;;;;;;;4986116;28;20439;-83
2023/04/14 11:10:00;;;;;;;7.93;1.88;;;;;;;;;;5001488;28;20410;-82
2023/04/14 11:12:30;;;;;;;6.97;1.90;;;;;;;;;;4997186;28;20484;-83
2023/04/14 11:15:01;;;;;;;6.40;1.77;;;;;;;;;;5014023;28;20501;-82
2023/04/14 11:17:33;;;;;;;6.85;1.90;;;;;;;;;;4997129;28;20484;-83
2023/04/14 11:20:10;;;;;;;5.93;1.90;;;;;;;;;;4992446;28;20438;-85
2023/04/14 11:22:57;;;;;;;5.83;1.60;;;;;;;;;;4981184;28;20424;-85
2023/04/14 11:25:23;;;;;;;8.38;2.50;;;;;;;;;;4957671;28;20759;-84
2023/04/14 11:27:50;;;;;;;8.07;2.40;;;;;;;;;;4978007;28;20525;-86
2023/04/14 11:30:37;;;;;;;7.22;1.92;;;;;;;;;;4985832;28;20916;-85
2023/04/14 11:33:15;;;;;;;6.65;1.88;;;;;;;;;;5001933;28;20579;-85
2023/04/14 11:35:41;;;;;;;6.68;1.92;;;;;;;;;;4980015;28;20426;-84
2023/04/14 11:38:09;;;;;;;5.57;1.88;;;;;;;;;;5001064;28;20482;-82
2023/04/14 11:40:35;;;;;;;6.35;1.90;;;;;;;;;;4994230;28;20509;-83
2023/04/14 11:43:01;;;;;;;7.10;2.10;;;;;;;;;;5006254;28;20424;-83
2023/04/14 11:45:28;;;;;;;5.78;1.60;;;;;;;;;;5013334;28;20537;-81
2023/04/14 11:48:02;;;;;;;7.55;1.95;;;;;;;;;;4980091;28;20430;-83
2023/04/14 11:50:30;;;;;;;8.13;2.30;;;;;;;;;;4977054;28;20449;-82
2023/04/14 11:52:58;;;;;;;6.30;1.98;;;;;;;;;;4986350;28;20419;-83
2023/04/14 11:55:47;;;;;;;5.72;2.22;;;;;;;;;;4985469;28;20820;-82
2023/04/14 11:58:32;;;;;;;6.47;1.80;;;;;;;;;;4979158;28;20399;-82
2023/04/14 12:01:26;;;;;;;5.80;1.70;;;;;;;;;;4983527;28;20402;-82
2023/04/14 12:03:58;;;;;;;6.93;2.00;;;;;;;;;;4974717;28;20501;-82
2023/04/14 12:06:27;;;;;;;5.67;2.00;;;;;;;;;;4985335;28;20507;-83
2023/04/14 12:09:02;;;;;;;7.55;2.08;;;;;;;;;;4994372;28;20717;-83
2023/04/14 12:11:31;;;;;;;8.38;2.10;;;;;;;;;;4970241;28;20431;-82
2023/04/14 12:14:04;;;;;;;7.38;1.95;;;;;;;;;;4970078;28;20801;-83
2023/04/14 12:16:39;;;;;;;7.75;1.70;;;;;;;;;;4991807;28;20456;-82
2023/04/14 12:19:09;;;;;;;5.87;1.97;;;;;;;;;;4987718;28;20599;-83
2023/04/14 12:21:44;;;;;;;7.18;2.03;;;;;;;;;;4990058;28;20426;-83
2023/04/14 12:24:10;;;;;;;7.45;2.30;;;;;;;;;;4975639;28;20475;-82
2023/04/14 12:26:40;;;;;;;7.57;1.95;;;;;;;;;;4976012;28;20436;-82
2023/04/14 12:29:07;;;;;;;8.07;2.10;;;;;;;;;;4993228;28;20469;-82
2023/04/14 12:31:33;;;;;;;8.82;2.35;;;;;;;;;;4995985;28;20501;-82
2023/04/14 12:34:01;;;;;;;5.90;1.80;;;;;;;;;;4978253;28;20422;-82
2023/04/14 12:36:36;;;;;;;5.63;1.83;;;;;;;;;;4977841;28;20944;-83
2023/04/14 12:39:35;;;;;;;6.82;2.28;;;;;;;;;;4979794;28;20427;-83
2023/04/14 12:42:04;;;;;;;8.00;2.13;;;;;;;;;;4966453;28;20428;-83
2023/04/14 12:44:59;;;;;;;5.95;2.03;;;;;;;;;;4991502;28;20430;-83
2023/04/14 12:47:29;;;;;;;5.97;2.20;;;;;;;;;;4984176;28;20724;-83
2023/04/14 12:49:56;;;;;;;6.40;1.88;;;;;;;;;;4985145;28;20420;-83
2023/04/14 12:52:35;;;;;;;6.57;2.35;;;;;;;;;;4984850;28;20469;-83
2023/04/14 12:55:07;;;;;;;6.55;2.10;;;;;;;;;;4982005;28;20410;-84
2023/04/14 12:57:34;;;;;;;8.30;2.00;;;;;;;;;;4985567;28;20785;-83
2023/04/14 13:00:00;;;;;;;6.68;2.00;;;;;;;;;;4989485;28;20441;-84
2023/04/14 13:02:28;;;;;;;5.65;1.90;;;;;;;;;;4996158;28;20426;-83
2023/04/14 13:04:55;;;;;;;7.05;2.20;;;;;;;;;;4984435;28;20819;-84
2023/04/14 13:07:31;;;;;;;5.70;1.90;;;;;;;;;;4973403;28;20504;-84
2023/04/14 13:10:00;;;;;;;8.23;2.00;;;;;;;;;;4971628;28;20787;-84
2023/04/14 13:12:47;;;;;;;6.45;1.90;;;;;;;;;;4988538;28;20482;-85
2023/04/14 13:15:35;;;;;;;4.60;1.60;;;;;;;;;;4997512;28;20427;-82
2023/04/14 13:18:24;;;;;;;;;;;;;;;;;;;;;
2023/04/14 13:24:21;;;;;;;4.68;1.67;;;;;;;;;;4985201;28;20414;-83
2023/04/14 13:26:50;;;;;;;6.20;1.60;;;;;;;;;;4993080;28;20896;-84
2023/04/14 13:29:17;;;;;;;7.75;2.25;;;;;;;;;;4993572;28;20422;-85
2023/04/14 13:31:43;;;;;;;4.65;2.17;;;;;;;;;;4977633;28;20764;-84
2023/04/14 13:34:10;;;;;;;7.88;2.42;;;;;;;;;;4979212;28;20734;-83
2023/04/14 13:36:45;;;;;;;7.40;2.28;;;;;;;;;;4987965;28;20937;-83
2023/04/14 13:39:40;;;;;;;8.53;2.27;;;;;;;;;;4989446;28;20557;-83
2023/04/14 13:42:08;;;;;;;6.75;1.88;;;;;;;;;;4970063;28;20766;-83
2023/04/14 13:44:36;;;;;;;7.68;2.20;;;;;;;;;;4980651;28;20434;-83
2023/04/14 13:47:17;;;;;;;6.90;2.00;;;;;;;;;;4973094;28;20831;-83
2023/04/14 13:49:46;;;;;;;5.45;1.80;;;;;;;;;;4973268;28;20422;-83
2023/04/14 13:52:15;;;;;;;8.57;2.30;;;;;;;;;;4971251;28;20430;-83
2023/04/14 13:54:42;;;;;;;7.00;2.13;;;;;;;;;;4983889;28;20913;-83
2023/04/14 13:57:08;;;;;;;5.88;2.00;;;;;;;;;;4975527;28;20431;-83
2023/04/14 13:59:34;;;;;;;6.20;1.90;;;;;;;;;;4995708;28;20523;-81
2023/04/14 14:02:01;;;;;;;6.43;2.00;;;;;;;;;;4997554;28;20467;-84
2023/04/14 14:04:30;;;;;;;6.35;1.90;;;;;;;;;;4993322;28;20458;-83
2023/04/14 14:06:56;;;;;;;5.55;1.70;;;;;;;;;;4967444;28;20788;-83
2023/04/14 14:09:26;;;;;;;6.25;2.00;;;;;;;;;;4960404;28;20423;-84
2023/04/14 14:11:53;;;;;;;6.95;2.00;;;;;;;;;;4974662;28;20409;-84
2023/04/14 14:14:29;;;;;;;6.68;1.85;;;;;;;;;;4983408;28;20449;-84
2023/04/14 14:17:16;;;;;;;6.45;1.80;;;;;;;;;;4989233;28;20438;-85
2023/04/14 14:19:45;;;;;;;7.88;1.90;;;;;;;;;;4990065;28;20430;-84
2023/04/14 14:22:25;;;;;;;5.32;2.00;;;;;;;;;;4989000;28;20448;-85
2023/04/14 14:25:00;;;;;;;6.18;1.70;;;;;;;;;;4980964;28;20432;-86
2023/04/14 14:27:31;;;;;;;6.82;1.88;;;;;;;;;;4980657;28;20451;-85
2023/04/14 14:30:10;;;;;;;6.63;1.80;;;;;;;;;;4980797;28;20426;-86
2023/04/14 14:32:38;;;;;;;5.93;1.75;;;;;;;;;;4986833;28;20417;-86
2023/04/14 14:35:07;;;;;;;6.40;2.00;;;;;;;;;;4981770;28;20918;-85
2023/04/14 14:37:37;;;;;;;6.10;1.70;;;;;;;;;;4973605;28;20519;-86
2023/04/14 14:40:18;;;;;;;4.60;1.80;;;;;;;;;;4976955;28;20422;-85
2023/04/14 14:46:06;;;;;;;;;;;;;;;;;;;;;
2023/04/14 14:48:35;;;;;;;7.25;2.30;;;;;;;;;;4983187;28;20525;-84
2023/04/14 14:51:01;;;;;;;6.40;2.10;;;;;;;;;;4976331;28;20415;-85
2023/04/14 14:53:31;;;;;;;7.43;2.10;;;;;;;;;;4975666;28;20426;-83
2023/04/14 14:56:03;;;;;;;6.60;2.20;;;;;;;;;;4964602;28;20782;-84
2023/04/14 14:58:30;;;;;;;4.78;2.05;;;;;;;;;;4975053;28;20418;-84
2023/04/14 15:01:26;;;;;;;5.53;1.83;;;;;;;;;;4973024;28;20475;-85